sensor_id;sensor_type;location;lat;lon;timestamp;P1;durP1;ratioP1;P2;durP2;ratioP2
33138;SDS011;19501;50.948;5.316;2022-11-14T00:00:34;56.33;;;27.13;;
33138;SDS011;19501;50.948;5.316;2022-11-14T00:03:00;55.58;;;26.08;;
33138;SDS011;19501;50.948;5.316;2022-11-14T00:05:27;51.25;;;25.92;;
33138;SDS011;19501;50.948;5.316;2022-11-14T00:07:53;48.60;;;24.17;;
33138;SDS011;19501;50.948;5.316;2022-11-14T00:10:18;49.17;;;24.02;;
33138;SDS011;19501;50.948;5.316;2022-11-14T00:12:44;48.45;;;23.98;;
33138;SDS011;19501;50.948;5.316;2022-11-14T00:15:11;44.47;;;22.50;;
33138;SDS011;19501;50.948;5.316;2022-11-14T00:17:37;52.90;;;24.95;;
33138;SDS011;19501;50.948;5.316;2022-11-14T00:20:03;48.60;;;25.10;;
33138;SDS011;19501;50.948;5.316;2022-11-14T00:22:30;48.35;;;23.48;;
33138;SDS011;19501;50.948;5.316;2022-11-14T00:24:56;49.60;;;22.95;;
33138;SDS011;19501;50.948;5.316;2022-11-14T00:27:22;49.72;;;23.23;;
33138;SDS011;19501;50.948;5.316;2022-11-14T00:29:50;43.30;;;21.92;;
33138;SDS011;19501;50.948;5.316;2022-11-14T00:32:17;42.53;;;21.30;;
33138;SDS011;19501;50.948;5.316;2022-11-14T00:34:44;48.22;;;23.02;;
33138;SDS011;19501;50.948;5.316;2022-11-14T00:37:09;45.65;;;20.70;;
33138;SDS011;19501;50.948;5.316;2022-11-14T00:39:37;47.47;;;22.10;;
33138;SDS011;19501;50.948;5.316;2022-11-14T00:42:03;47.55;;;23.40;;
33138;SDS011;19501;50.948;5.316;2022-11-14T00:44:29;44.35;;;21.15;;
33138;SDS011;19501;50.948;5.316;2022-11-14T00:46:54;44.92;;;21.08;;
33138;SDS011;19501;50.948;5.316;2022-11-14T00:49:22;41.97;;;20.08;;
33138;SDS011;19501;50.948;5.316;2022-11-14T00:51:48;39.42;;;20.52;;
33138;SDS011;19501;50.948;5.316;2022-11-14T00:54:13;48.70;;;22.73;;
33138;SDS011;19501;50.948;5.316;2022-11-14T00:56:39;41.67;;;21.20;;
33138;SDS011;19501;50.948;5.316;2022-11-14T00:59:05;43.30;;;21.17;;
33138;SDS011;19501;50.948;5.316;2022-11-14T01:01:30;45.50;;;22.10;;
33138;SDS011;19501;50.948;5.316;2022-11-14T01:03:56;42.60;;;19.73;;
33138;SDS011;19501;50.948;5.316;2022-11-14T01:06:22;44.20;;;20.88;;
33138;SDS011;19501;50.948;5.316;2022-11-14T01:08:49;40.85;;;20.70;;
33138;SDS011;19501;50.948;5.316;2022-11-14T01:11:16;50.60;;;22.42;;
33138;SDS011;19501;50.948;5.316;2022-11-14T01:13:44;41.65;;;20.77;;
33138;SDS011;19501;50.948;5.316;2022-11-14T01:16:10;44.30;;;21.23;;
33138;SDS011;19501;50.948;5.316;2022-11-14T01:18:37;44.15;;;20.50;;
33138;SDS011;19501;50.948;5.316;2022-11-14T01:21:04;45.33;;;22.50;;
33138;SDS011;19501;50.948;5.316;2022-11-14T01:23:33;53.17;;;24.80;;
33138;SDS011;19501;50.948;5.316;2022-11-14T01:26:03;48.53;;;22.80;;
33138;SDS011;19501;50.948;5.316;2022-11-14T01:28:32;37.47;;;19.92;;
33138;SDS011;19501;50.948;5.316;2022-11-14T01:33:41;52.53;;;22.60;;
33138;SDS011;19501;50.948;5.316;2022-11-14T01:36:08;46.50;;;21.35;;
33138;SDS011;19501;50.948;5.316;2022-11-14T01:38:34;51.50;;;24.48;;
33138;SDS011;19501;50.948;5.316;2022-11-14T01:41:01;53.15;;;24.23;;
33138;SDS011;19501;50.948;5.316;2022-11-14T01:46:01;49.95;;;23.08;;
33138;SDS011;19501;50.948;5.316;2022-11-14T01:51:04;52.67;;;25.33;;
33138;SDS011;19501;50.948;5.316;2022-11-14T01:53:57;53.97;;;25.23;;
33138;SDS011;19501;50.948;5.316;2022-11-14T01:56:27;55.33;;;25.40;;
33138;SDS011;19501;50.948;5.316;2022-11-14T01:58:59;48.42;;;23.50;;
33138;SDS011;19501;50.948;5.316;2022-11-14T02:01:28;49.90;;;22.60;;
33138;SDS011;19501;50.948;5.316;2022-11-14T02:03:56;53.20;;;24.95;;
33138;SDS011;19501;50.948;5.316;2022-11-14T02:06:25;56.45;;;26.60;;
33138;SDS011;19501;50.948;5.316;2022-11-14T02:08:53;52.17;;;23.15;;
33138;SDS011;19501;50.948;5.316;2022-11-14T02:11:21;49.03;;;24.73;;
33138;SDS011;19501;50.948;5.316;2022-11-14T02:13:49;54.17;;;25.02;;
33138;SDS011;19501;50.948;5.316;2022-11-14T02:16:15;49.88;;;22.90;;
33138;SDS011;19501;50.948;5.316;2022-11-14T02:18:41;46.35;;;21.58;;
33138;SDS011;19501;50.948;5.316;2022-11-14T02:21:06;49.75;;;22.63;;
33138;SDS011;19501;50.948;5.316;2022-11-14T02:23:32;46.70;;;21.48;;
33138;SDS011;19501;50.948;5.316;2022-11-14T02:25:58;49.40;;;23.40;;
33138;SDS011;19501;50.948;5.316;2022-11-14T02:28:26;46.97;;;21.63;;
33138;SDS011;19501;50.948;5.316;2022-11-14T02:30:54;46.72;;;23.00;;
33138;SDS011;19501;50.948;5.316;2022-11-14T02:33:20;43.83;;;21.38;;
33138;SDS011;19501;50.948;5.316;2022-11-14T02:35:46;47.85;;;22.23;;
33138;SDS011;19501;50.948;5.316;2022-11-14T02:38:11;48.97;;;23.05;;
33138;SDS011;19501;50.948;5.316;2022-11-14T02:40:38;42.33;;;20.50;;
33138;SDS011;19501;50.948;5.316;2022-11-14T02:43:03;46.08;;;21.88;;
33138;SDS011;19501;50.948;5.316;2022-11-14T02:45:29;38.58;;;20.00;;
33138;SDS011;19501;50.948;5.316;2022-11-14T02:47:54;44.85;;;20.63;;
33138;SDS011;19501;50.948;5.316;2022-11-14T02:50:20;45.00;;;21.38;;
33138;SDS011;19501;50.948;5.316;2022-11-14T02:52:48;44.90;;;20.33;;
33138;SDS011;19501;50.948;5.316;2022-11-14T02:55:14;44.63;;;21.13;;
33138;SDS011;19501;50.948;5.316;2022-11-14T02:57:39;42.22;;;20.70;;
33138;SDS011;19501;50.948;5.316;2022-11-14T03:00:05;41.63;;;20.75;;
33138;SDS011;19501;50.948;5.316;2022-11-14T03:02:31;45.63;;;20.48;;
33138;SDS011;19501;50.948;5.316;2022-11-14T03:04:57;42.90;;;19.60;;
33138;SDS011;19501;50.948;5.316;2022-11-14T03:07:22;45.95;;;21.08;;
33138;SDS011;19501;50.948;5.316;2022-11-14T03:09:48;40.97;;;18.85;;
33138;SDS011;19501;50.948;5.316;2022-11-14T03:12:16;37.65;;;17.33;;
33138;SDS011;19501;50.948;5.316;2022-11-14T03:14:43;38.58;;;20.08;;
33138;SDS011;19501;50.948;5.316;2022-11-14T03:17:09;37.63;;;17.77;;
33138;SDS011;19501;50.948;5.316;2022-11-14T03:19:34;34.47;;;17.42;;
33138;SDS011;19501;50.948;5.316;2022-11-14T03:22:00;38.20;;;19.50;;
33138;SDS011;19501;50.948;5.316;2022-11-14T03:24:28;34.80;;;17.75;;
33138;SDS011;19501;50.948;5.316;2022-11-14T03:26:54;35.55;;;18.35;;
33138;SDS011;19501;50.948;5.316;2022-11-14T03:29:20;34.80;;;17.92;;
33138;SDS011;19501;50.948;5.316;2022-11-14T03:31:45;34.92;;;18.05;;
33138;SDS011;19501;50.948;5.316;2022-11-14T03:34:11;34.63;;;18.40;;
33138;SDS011;19501;50.948;5.316;2022-11-14T03:36:37;37.42;;;18.23;;
33138;SDS011;19501;50.948;5.316;2022-11-14T03:39:03;33.67;;;17.52;;
33138;SDS011;19501;50.948;5.316;2022-11-14T03:41:29;36.42;;;17.73;;
33138;SDS011;19501;50.948;5.316;2022-11-14T03:43:55;33.30;;;18.23;;
33138;SDS011;19501;50.948;5.316;2022-11-14T03:46:21;40.10;;;19.58;;
33138;SDS011;19501;50.948;5.316;2022-11-14T03:48:47;36.97;;;19.00;;
33138;SDS011;19501;50.948;5.316;2022-11-14T03:51:12;36.65;;;19.23;;
33138;SDS011;19501;50.948;5.316;2022-11-14T03:53:40;34.63;;;18.83;;
33138;SDS011;19501;50.948;5.316;2022-11-14T03:56:06;38.22;;;20.55;;
33138;SDS011;19501;50.948;5.316;2022-11-14T03:58:32;37.38;;;20.33;;
33138;SDS011;19501;50.948;5.316;2022-11-14T04:00:57;39.47;;;20.92;;
33138;SDS011;19501;50.948;5.316;2022-11-14T04:03:23;41.05;;;22.98;;
33138;SDS011;19501;50.948;5.316;2022-11-14T04:05:49;40.67;;;21.30;;
33138;SDS011;19501;50.948;5.316;2022-11-14T04:08:16;40.03;;;22.20;;
33138;SDS011;19501;50.948;5.316;2022-11-14T04:10:42;39.10;;;23.00;;
33138;SDS011;19501;50.948;5.316;2022-11-14T04:13:10;38.38;;;21.17;;
33138;SDS011;19501;50.948;5.316;2022-11-14T04:15:36;39.03;;;20.90;;
33138;SDS011;19501;50.948;5.316;2022-11-14T04:18:02;38.05;;;20.98;;
33138;SDS011;19501;50.948;5.316;2022-11-14T04:20:27;38.72;;;20.42;;
33138;SDS011;19501;50.948;5.316;2022-11-14T04:22:53;39.60;;;20.08;;
33138;SDS011;19501;50.948;5.316;2022-11-14T04:25:19;39.17;;;20.75;;
33138;SDS011;19501;50.948;5.316;2022-11-14T04:27:45;38.40;;;19.48;;
33138;SDS011;19501;50.948;5.316;2022-11-14T04:30:11;36.88;;;18.77;;
33138;SDS011;19501;50.948;5.316;2022-11-14T04:32:39;37.92;;;19.83;;
33138;SDS011;19501;50.948;5.316;2022-11-14T04:35:05;34.45;;;17.67;;
33138;SDS011;19501;50.948;5.316;2022-11-14T04:37:31;34.60;;;18.38;;
33138;SDS011;19501;50.948;5.316;2022-11-14T04:39:56;40.20;;;19.67;;
33138;SDS011;19501;50.948;5.316;2022-11-14T04:42:25;35.05;;;18.42;;
33138;SDS011;19501;50.948;5.316;2022-11-14T04:44:50;40.33;;;19.45;;
33138;SDS011;19501;50.948;5.316;2022-11-14T04:47:16;36.80;;;18.75;;
33138;SDS011;19501;50.948;5.316;2022-11-14T04:49:42;36.33;;;17.75;;
33138;SDS011;19501;50.948;5.316;2022-11-14T04:52:07;35.92;;;17.48;;
33138;SDS011;19501;50.948;5.316;2022-11-14T04:54:33;40.58;;;18.40;;
33138;SDS011;19501;50.948;5.316;2022-11-14T04:56:59;41.50;;;18.83;;
33138;SDS011;19501;50.948;5.316;2022-11-14T04:59:25;38.40;;;17.40;;
33138;SDS011;19501;50.948;5.316;2022-11-14T05:01:53;36.30;;;16.95;;
33138;SDS011;19501;50.948;5.316;2022-11-14T05:04:20;41.25;;;19.33;;
33138;SDS011;19501;50.948;5.316;2022-11-14T05:06:46;40.22;;;17.95;;
33138;SDS011;19501;50.948;5.316;2022-11-14T05:09:12;35.88;;;18.58;;
33138;SDS011;19501;50.948;5.316;2022-11-14T05:11:38;40.55;;;19.08;;
33138;SDS011;19501;50.948;5.316;2022-11-14T05:14:04;37.22;;;18.75;;
33138;SDS011;19501;50.948;5.316;2022-11-14T05:16:30;40.50;;;18.77;;
33138;SDS011;19501;50.948;5.316;2022-11-14T05:18:56;40.67;;;19.27;;
33138;SDS011;19501;50.948;5.316;2022-11-14T05:21:21;39.22;;;19.58;;
33138;SDS011;19501;50.948;5.316;2022-11-14T05:23:47;45.47;;;19.00;;
33138;SDS011;19501;50.948;5.316;2022-11-14T05:26:15;38.35;;;17.85;;
33138;SDS011;19501;50.948;5.316;2022-11-14T05:28:42;41.28;;;19.92;;
33138;SDS011;19501;50.948;5.316;2022-11-14T05:31:08;49.15;;;22.60;;
33138;SDS011;19501;50.948;5.316;2022-11-14T05:33:36;45.08;;;20.63;;
33138;SDS011;19501;50.948;5.316;2022-11-14T05:36:09;34.10;;;17.90;;
33138;SDS011;19501;50.948;5.316;2022-11-14T05:38:37;40.90;;;19.65;;
33138;SDS011;19501;50.948;5.316;2022-11-14T05:41:06;43.45;;;19.92;;
33138;SDS011;19501;50.948;5.316;2022-11-14T05:43:34;36.10;;;18.15;;
33138;SDS011;19501;50.948;5.316;2022-11-14T05:46:03;40.63;;;18.92;;
33138;SDS011;19501;50.948;5.316;2022-11-14T05:48:30;36.80;;;18.25;;
33138;SDS011;19501;50.948;5.316;2022-11-14T05:50:57;34.85;;;16.73;;
33138;SDS011;19501;50.948;5.316;2022-11-14T05:53:25;32.63;;;16.25;;
33138;SDS011;19501;50.948;5.316;2022-11-14T05:55:54;35.28;;;17.13;;
33138;SDS011;19501;50.948;5.316;2022-11-14T05:58:24;36.20;;;16.38;;
33138;SDS011;19501;50.948;5.316;2022-11-14T06:00:50;36.05;;;17.10;;
33138;SDS011;19501;50.948;5.316;2022-11-14T06:03:16;33.25;;;16.80;;
33138;SDS011;19501;50.948;5.316;2022-11-14T06:05:41;34.50;;;17.75;;
33138;SDS011;19501;50.948;5.316;2022-11-14T06:08:07;35.53;;;16.35;;
33138;SDS011;19501;50.948;5.316;2022-11-14T06:10:33;35.05;;;16.58;;
33138;SDS011;19501;50.948;5.316;2022-11-14T06:13:00;35.13;;;16.02;;
33138;SDS011;19501;50.948;5.316;2022-11-14T06:15:25;35.80;;;16.60;;
33138;SDS011;19501;50.948;5.316;2022-11-14T06:17:52;32.63;;;15.63;;
33138;SDS011;19501;50.948;5.316;2022-11-14T06:20:18;37.78;;;16.38;;
33138;SDS011;19501;50.948;5.316;2022-11-14T06:22:45;35.13;;;16.55;;
33138;SDS011;19501;50.948;5.316;2022-11-14T06:25:13;36.33;;;16.60;;
33138;SDS011;19501;50.948;5.316;2022-11-14T06:27:38;38.13;;;17.70;;
33138;SDS011;19501;50.948;5.316;2022-11-14T06:30:05;37.40;;;17.35;;
33138;SDS011;19501;50.948;5.316;2022-11-14T06:32:32;45.13;;;20.65;;
33138;SDS011;19501;50.948;5.316;2022-11-14T06:34:58;38.88;;;17.27;;
33138;SDS011;19501;50.948;5.316;2022-11-14T06:37:24;35.08;;;16.67;;
33138;SDS011;19501;50.948;5.316;2022-11-14T06:39:50;38.88;;;18.08;;
33138;SDS011;19501;50.948;5.316;2022-11-14T06:42:15;41.85;;;19.88;;
33138;SDS011;19501;50.948;5.316;2022-11-14T06:44:41;39.30;;;18.40;;
33138;SDS011;19501;50.948;5.316;2022-11-14T06:47:07;39.22;;;18.00;;
33138;SDS011;19501;50.948;5.316;2022-11-14T06:49:32;39.78;;;18.10;;
33138;SDS011;19501;50.948;5.316;2022-11-14T06:51:58;44.38;;;18.00;;
33138;SDS011;19501;50.948;5.316;2022-11-14T06:54:23;40.13;;;17.55;;
33138;SDS011;19501;50.948;5.316;2022-11-14T06:56:49;41.25;;;18.00;;
33138;SDS011;19501;50.948;5.316;2022-11-14T06:59:15;38.42;;;17.60;;
33138;SDS011;19501;50.948;5.316;2022-11-14T07:01:41;35.72;;;17.33;;
33138;SDS011;19501;50.948;5.316;2022-11-14T07:04:10;36.67;;;17.00;;
33138;SDS011;19501;50.948;5.316;2022-11-14T07:06:38;39.60;;;15.82;;
33138;SDS011;19501;50.948;5.316;2022-11-14T07:09:03;33.22;;;16.60;;
33138;SDS011;19501;50.948;5.316;2022-11-14T07:11:29;38.75;;;16.85;;
33138;SDS011;19501;50.948;5.316;2022-11-14T07:13:59;39.50;;;17.40;;
33138;SDS011;19501;50.948;5.316;2022-11-14T07:16:30;40.42;;;17.38;;
33138;SDS011;19501;50.948;5.316;2022-11-14T07:18:59;36.95;;;17.45;;
33138;SDS011;19501;50.948;5.316;2022-11-14T07:21:27;36.65;;;16.85;;
33138;SDS011;19501;50.948;5.316;2022-11-14T07:23:53;39.67;;;17.75;;
33138;SDS011;19501;50.948;5.316;2022-11-14T07:26:20;38.88;;;16.92;;
33138;SDS011;19501;50.948;5.316;2022-11-14T07:28:46;116.78;;;21.33;;
33138;SDS011;19501;50.948;5.316;2022-11-14T07:31:12;40.45;;;16.83;;
33138;SDS011;19501;50.948;5.316;2022-11-14T07:33:39;41.17;;;17.10;;
33138;SDS011;19501;50.948;5.316;2022-11-14T07:36:06;38.97;;;17.02;;
33138;SDS011;19501;50.948;5.316;2022-11-14T07:38:33;37.33;;;18.40;;
33138;SDS011;19501;50.948;5.316;2022-11-14T07:41:01;37.25;;;17.10;;
33138;SDS011;19501;50.948;5.316;2022-11-14T07:43:31;41.08;;;16.17;;
33138;SDS011;19501;50.948;5.316;2022-11-14T07:46:00;39.35;;;17.50;;
33138;SDS011;19501;50.948;5.316;2022-11-14T07:48:28;38.22;;;17.33;;
33138;SDS011;19501;50.948;5.316;2022-11-14T07:50:57;36.58;;;16.80;;
33138;SDS011;19501;50.948;5.316;2022-11-14T07:53:24;37.50;;;18.52;;
33138;SDS011;19501;50.948;5.316;2022-11-14T07:55:50;37.95;;;18.33;;
33138;SDS011;19501;50.948;5.316;2022-11-14T07:58:16;42.33;;;18.98;;
33138;SDS011;19501;50.948;5.316;2022-11-14T08:00:42;38.95;;;18.80;;
33138;SDS011;19501;50.948;5.316;2022-11-14T08:03:08;42.20;;;19.70;;
33138;SDS011;19501;50.948;5.316;2022-11-14T08:05:34;41.35;;;19.10;;
33138;SDS011;19501;50.948;5.316;2022-11-14T08:08:00;41.10;;;19.35;;
33138;SDS011;19501;50.948;5.316;2022-11-14T08:10:26;43.15;;;20.65;;
33138;SDS011;19501;50.948;5.316;2022-11-14T08:13:01;42.20;;;20.80;;
33138;SDS011;19501;50.948;5.316;2022-11-14T08:15:29;42.75;;;21.52;;
33138;SDS011;19501;50.948;5.316;2022-11-14T08:17:58;44.55;;;21.23;;
33138;SDS011;19501;50.948;5.316;2022-11-14T08:20:26;46.80;;;20.63;;
33138;SDS011;19501;50.948;5.316;2022-11-14T08:23:02;50.03;;;25.00;;
33138;SDS011;19501;50.948;5.316;2022-11-14T08:25:29;52.95;;;24.50;;
33138;SDS011;19501;50.948;5.316;2022-11-14T08:27:55;51.05;;;24.73;;
33138;SDS011;19501;50.948;5.316;2022-11-14T08:30:23;51.22;;;23.48;;
33138;SDS011;19501;50.948;5.316;2022-11-14T08:32:49;48.35;;;23.63;;
33138;SDS011;19501;50.948;5.316;2022-11-14T08:35:14;48.72;;;23.88;;
33138;SDS011;19501;50.948;5.316;2022-11-14T08:37:40;51.05;;;24.55;;
33138;SDS011;19501;50.948;5.316;2022-11-14T08:40:08;49.75;;;24.40;;
33138;SDS011;19501;50.948;5.316;2022-11-14T08:42:34;50.47;;;25.73;;
33138;SDS011;19501;50.948;5.316;2022-11-14T08:45:00;51.42;;;25.58;;
33138;SDS011;19501;50.948;5.316;2022-11-14T08:47:26;54.03;;;26.35;;
33138;SDS011;19501;50.948;5.316;2022-11-14T08:49:51;55.35;;;25.80;;
33138;SDS011;19501;50.948;5.316;2022-11-14T08:52:17;46.38;;;25.58;;
33138;SDS011;19501;50.948;5.316;2022-11-14T08:54:42;47.33;;;24.60;;
33138;SDS011;19501;50.948;5.316;2022-11-14T08:57:08;45.00;;;24.80;;
33138;SDS011;19501;50.948;5.316;2022-11-14T08:59:35;48.97;;;23.55;;
33138;SDS011;19501;50.948;5.316;2022-11-14T09:02:01;42.45;;;22.75;;
33138;SDS011;19501;50.948;5.316;2022-11-14T09:04:29;39.72;;;20.40;;
33138;SDS011;19501;50.948;5.316;2022-11-14T09:06:57;40.30;;;20.17;;
33138;SDS011;19501;50.948;5.316;2022-11-14T09:09:23;35.97;;;18.25;;
33138;SDS011;19501;50.948;5.316;2022-11-14T09:11:48;33.80;;;15.40;;
33138;SDS011;19501;50.948;5.316;2022-11-14T09:14:14;30.02;;;14.05;;
33138;SDS011;19501;50.948;5.316;2022-11-14T09:16:40;32.03;;;13.73;;
33138;SDS011;19501;50.948;5.316;2022-11-14T09:19:06;25.83;;;12.75;;
33138;SDS011;19501;50.948;5.316;2022-11-14T09:21:31;28.42;;;13.50;;
33138;SDS011;19501;50.948;5.316;2022-11-14T09:23:57;30.42;;;13.35;;
33138;SDS011;19501;50.948;5.316;2022-11-14T09:26:23;27.15;;;12.65;;
33138;SDS011;19501;50.948;5.316;2022-11-14T09:28:48;29.98;;;13.05;;
33138;SDS011;19501;50.948;5.316;2022-11-14T09:31:16;27.90;;;13.10;;
33138;SDS011;19501;50.948;5.316;2022-11-14T09:33:42;27.90;;;13.55;;
33138;SDS011;19501;50.948;5.316;2022-11-14T09:36:08;30.23;;;13.00;;
33138;SDS011;19501;50.948;5.316;2022-11-14T09:38:35;27.30;;;12.18;;
33138;SDS011;19501;50.948;5.316;2022-11-14T09:46:10;26.70;;;13.52;;
33138;SDS011;19501;50.948;5.316;2022-11-14T09:48:43;26.95;;;13.02;;
33138;SDS011;19501;50.948;5.316;2022-11-14T09:51:14;30.35;;;12.65;;
33138;SDS011;19501;50.948;5.316;2022-11-14T09:53:54;25.88;;;12.40;;
33138;SDS011;19501;50.948;5.316;2022-11-14T09:56:24;29.55;;;14.20;;
33138;SDS011;19501;50.948;5.316;2022-11-14T09:58:51;31.88;;;12.50;;
33138;SDS011;19501;50.948;5.316;2022-11-14T10:07:00;32.17;;;12.75;;
33138;SDS011;19501;50.948;5.316;2022-11-14T10:11:55;29.27;;;12.48;;
33138;SDS011;19501;50.948;5.316;2022-11-14T10:25:29;31.02;;;13.52;;
33138;SDS011;19501;50.948;5.316;2022-11-14T10:30:46;30.02;;;14.00;;
33138;SDS011;19501;50.948;5.316;2022-11-14T10:36:10;36.17;;;15.35;;
33138;SDS011;19501;50.948;5.316;2022-11-14T10:38:47;32.60;;;14.18;;
33138;SDS011;19501;50.948;5.316;2022-11-14T10:41:18;30.35;;;13.75;;
33138;SDS011;19501;50.948;5.316;2022-11-14T10:43:45;34.13;;;14.85;;
33138;SDS011;19501;50.948;5.316;2022-11-14T10:48:45;34.75;;;14.20;;
33138;SDS011;19501;50.948;5.316;2022-11-14T10:51:33;31.90;;;14.40;;
33138;SDS011;19501;50.948;5.316;2022-11-14T10:56:45;33.25;;;13.50;;
33138;SDS011;19501;50.948;5.316;2022-11-14T10:59:12;31.42;;;14.15;;
33138;SDS011;19501;50.948;5.316;2022-11-14T11:01:39;34.78;;;13.95;;
33138;SDS011;19501;50.948;5.316;2022-11-14T11:06:42;35.47;;;14.85;;
33138;SDS011;19501;50.948;5.316;2022-11-14T11:09:10;34.78;;;14.27;;
33138;SDS011;19501;50.948;5.316;2022-11-14T11:11:57;32.17;;;14.95;;
33138;SDS011;19501;50.948;5.316;2022-11-14T11:14:25;28.70;;;12.48;;
33138;SDS011;19501;50.948;5.316;2022-11-14T11:19:48;32.97;;;13.73;;
33138;SDS011;19501;50.948;5.316;2022-11-14T11:22:28;29.92;;;12.63;;
33138;SDS011;19501;50.948;5.316;2022-11-14T11:25:03;30.13;;;13.18;;
33138;SDS011;19501;50.948;5.316;2022-11-14T11:28:08;27.52;;;12.65;;
33138;SDS011;19501;50.948;5.316;2022-11-14T11:30:55;29.27;;;12.03;;
33138;SDS011;19501;50.948;5.316;2022-11-14T11:33:26;27.25;;;12.18;;
33138;SDS011;19501;50.948;5.316;2022-11-14T11:35:58;29.83;;;12.52;;
33138;SDS011;19501;50.948;5.316;2022-11-14T11:38:28;30.33;;;12.45;;
33138;SDS011;19501;50.948;5.316;2022-11-14T11:41:00;28.27;;;12.50;;
33138;SDS011;19501;50.948;5.316;2022-11-14T11:46:17;29.13;;;12.82;;
33138;SDS011;19501;50.948;5.316;2022-11-14T11:48:50;25.65;;;11.80;;
33138;SDS011;19501;50.948;5.316;2022-11-14T11:51:24;27.58;;;13.00;;
33138;SDS011;19501;50.948;5.316;2022-11-14T11:53:56;28.45;;;12.32;;
33138;SDS011;19501;50.948;5.316;2022-11-14T11:56:31;26.40;;;11.90;;
33138;SDS011;19501;50.948;5.316;2022-11-14T11:59:05;29.80;;;13.38;;
33138;SDS011;19501;50.948;5.316;2022-11-14T12:01:33;27.42;;;12.48;;
33138;SDS011;19501;50.948;5.316;2022-11-14T12:03:59;27.50;;;12.63;;
33138;SDS011;19501;50.948;5.316;2022-11-14T12:06:25;33.00;;;13.27;;
33138;SDS011;19501;50.948;5.316;2022-11-14T12:09:13;25.30;;;11.82;;
33138;SDS011;19501;50.948;5.316;2022-11-14T12:11:41;25.55;;;12.38;;
33138;SDS011;19501;50.948;5.316;2022-11-14T12:14:26;30.08;;;13.25;;
33138;SDS011;19501;50.948;5.316;2022-11-14T12:17:11;27.13;;;12.65;;
33138;SDS011;19501;50.948;5.316;2022-11-14T12:29:16;29.02;;;13.10;;
33138;SDS011;19501;50.948;5.316;2022-11-14T12:32:04;30.00;;;13.48;;
33138;SDS011;19501;50.948;5.316;2022-11-14T12:34:39;29.20;;;13.35;;
33138;SDS011;19501;50.948;5.316;2022-11-14T12:37:09;29.20;;;12.15;;
33138;SDS011;19501;50.948;5.316;2022-11-14T12:39:42;29.48;;;13.38;;
33138;SDS011;19501;50.948;5.316;2022-11-14T12:42:24;30.13;;;13.70;;
33138;SDS011;19501;50.948;5.316;2022-11-14T12:44:50;28.67;;;12.35;;
33138;SDS011;19501;50.948;5.316;2022-11-14T12:47:17;29.48;;;12.85;;
33138;SDS011;19501;50.948;5.316;2022-11-14T12:58:10;28.17;;;11.55;;
33138;SDS011;19501;50.948;5.316;2022-11-14T13:14:14;24.83;;;11.05;;
33138;SDS011;19501;50.948;5.316;2022-11-14T13:17:10;25.85;;;11.10;;
33138;SDS011;19501;50.948;5.316;2022-11-14T13:20:06;24.83;;;10.18;;
33138;SDS011;19501;50.948;5.316;2022-11-14T13:31:19;23.65;;;11.32;;
33138;SDS011;19501;50.948;5.316;2022-11-14T13:33:52;23.58;;;10.98;;
33138;SDS011;19501;50.948;5.316;2022-11-14T13:44:47;25.00;;;11.13;;
33138;SDS011;19501;50.948;5.316;2022-11-14T13:50:31;29.17;;;14.15;;
33138;SDS011;19501;50.948;5.316;2022-11-14T13:53:01;28.90;;;13.07;;
33138;SDS011;19501;50.948;5.316;2022-11-14T13:55:52;28.98;;;13.43;;
33138;SDS011;19501;50.948;5.316;2022-11-14T14:01:20;33.70;;;14.07;;
33138;SDS011;19501;50.948;5.316;2022-11-14T14:06:48;26.60;;;12.52;;
33138;SDS011;19501;50.948;5.316;2022-11-14T14:21:26;27.17;;;12.40;;
33138;SDS011;19501;50.948;5.316;2022-11-14T14:26:53;26.05;;;10.40;;
33138;SDS011;19501;50.948;5.316;2022-11-14T14:29:24;26.75;;;11.55;;
33138;SDS011;19501;50.948;5.316;2022-11-14T14:32:10;27.30;;;11.95;;
33138;SDS011;19501;50.948;5.316;2022-11-14T14:34:38;27.38;;;12.95;;
33138;SDS011;19501;50.948;5.316;2022-11-14T14:37:17;26.48;;;11.50;;
33138;SDS011;19501;50.948;5.316;2022-11-14T14:40:00;27.98;;;12.20;;
33138;SDS011;19501;50.948;5.316;2022-11-14T14:42:48;30.65;;;12.45;;
33138;SDS011;19501;50.948;5.316;2022-11-14T14:45:18;27.02;;;11.38;;
33138;SDS011;19501;50.948;5.316;2022-11-14T14:47:46;26.92;;;11.57;;
33138;SDS011;19501;50.948;5.316;2022-11-14T14:50:15;26.27;;;12.15;;
33138;SDS011;19501;50.948;5.316;2022-11-14T14:52:43;26.75;;;12.55;;
33138;SDS011;19501;50.948;5.316;2022-11-14T14:55:21;28.77;;;12.63;;
33138;SDS011;19501;50.948;5.316;2022-11-14T14:58:13;30.20;;;13.25;;
33138;SDS011;19501;50.948;5.316;2022-11-14T15:00:52;29.13;;;13.00;;
33138;SDS011;19501;50.948;5.316;2022-11-14T15:03:31;27.42;;;12.52;;
33138;SDS011;19501;50.948;5.316;2022-11-14T15:06:25;25.38;;;11.95;;
33138;SDS011;19501;50.948;5.316;2022-11-14T15:09:06;30.23;;;13.90;;
33138;SDS011;19501;50.948;5.316;2022-11-14T15:11:35;28.30;;;12.80;;
33138;SDS011;19501;50.948;5.316;2022-11-14T15:14:05;29.98;;;12.68;;
33138;SDS011;19501;50.948;5.316;2022-11-14T15:16:34;27.40;;;12.85;;
33138;SDS011;19501;50.948;5.316;2022-11-14T15:19:01;26.40;;;12.07;;
33138;SDS011;19501;50.948;5.316;2022-11-14T15:21:28;31.08;;;12.68;;
33138;SDS011;19501;50.948;5.316;2022-11-14T15:24:02;25.63;;;11.95;;
33138;SDS011;19501;50.948;5.316;2022-11-14T15:26:39;29.98;;;12.27;;
33138;SDS011;19501;50.948;5.316;2022-11-14T15:29:23;27.85;;;12.23;;
33138;SDS011;19501;50.948;5.316;2022-11-14T15:31:57;28.52;;;12.65;;
33138;SDS011;19501;50.948;5.316;2022-11-14T15:34:37;28.83;;;12.70;;
33138;SDS011;19501;50.948;5.316;2022-11-14T15:39:40;27.25;;;12.43;;
33138;SDS011;19501;50.948;5.316;2022-11-14T15:44:51;27.05;;;11.82;;
33138;SDS011;19501;50.948;5.316;2022-11-14T15:49:55;32.65;;;13.63;;
33138;SDS011;19501;50.948;5.316;2022-11-14T15:54:59;27.80;;;12.77;;
33138;SDS011;19501;50.948;5.316;2022-11-14T15:57:25;37.92;;;15.35;;
33138;SDS011;19501;50.948;5.316;2022-11-14T15:59:51;37.20;;;17.88;;
33138;SDS011;19501;50.948;5.316;2022-11-14T16:02:21;48.10;;;21.92;;
33138;SDS011;19501;50.948;5.316;2022-11-14T16:04:52;42.75;;;18.85;;
33138;SDS011;19501;50.948;5.316;2022-11-14T16:07:19;41.08;;;17.70;;
33138;SDS011;19501;50.948;5.316;2022-11-14T16:09:46;42.20;;;18.30;;
33138;SDS011;19501;50.948;5.316;2022-11-14T16:12:14;35.10;;;14.93;;
33138;SDS011;19501;50.948;5.316;2022-11-14T16:14:43;36.05;;;17.95;;
33138;SDS011;19501;50.948;5.316;2022-11-14T16:17:11;33.75;;;15.85;;
33138;SDS011;19501;50.948;5.316;2022-11-14T16:19:41;29.70;;;14.33;;
33138;SDS011;19501;50.948;5.316;2022-11-14T16:22:08;29.67;;;13.85;;
33138;SDS011;19501;50.948;5.316;2022-11-14T16:24:40;30.42;;;14.07;;
33138;SDS011;19501;50.948;5.316;2022-11-14T16:27:06;30.95;;;13.52;;
33138;SDS011;19501;50.948;5.316;2022-11-14T16:29:32;33.25;;;13.40;;
33138;SDS011;19501;50.948;5.316;2022-11-14T16:31:57;29.95;;;12.63;;
33138;SDS011;19501;50.948;5.316;2022-11-14T16:34:24;31.17;;;14.07;;
33138;SDS011;19501;50.948;5.316;2022-11-14T16:36:57;29.77;;;13.23;;
33138;SDS011;19501;50.948;5.316;2022-11-14T16:39:24;30.15;;;13.32;;
33138;SDS011;19501;50.948;5.316;2022-11-14T16:41:51;28.42;;;12.90;;
33138;SDS011;19501;50.948;5.316;2022-11-14T16:44:16;31.05;;;12.80;;